Rechercher aéroport 
image banner adimage banner adimage banner ad
image banner ad

3CN5 - Los Angeles County Sheriffs Dept South La

Situé à Los Angeles, United States

ICAO - 3CN5, IATA -

Données fournies par Airmate  

Information générale

Coordonnées: N33°55'43" W118°17'56"
Élévation : 209 feet MSL.
 
Voir autres Aéroports à California

Données opérationnelles

Special qualification required
Heure actuelle UTC:
Heure actuelle locale:
METAR: KHHR 180753Z AUTO 29003KT 10SM CLR 17/13 A3004 RMK AO2 SLP172 T01720128 402280167
Voir NOTAMs / SUP AIP / TFR affectant cet aéroport [VIEW]
Fréquences de communication: [VIEW]

Pistes:

Coordonnées de l'aéroport

Adresse: Los Angeles United States

Vue satellite de 3CN5